sensor_id;sensor_type;location;lat;lon;timestamp;temperature;humidity
52731;DHT22;38624;53.242;6.974;2023-03-01T00:01:19;0.60;99.90
52731;DHT22;38624;53.242;6.974;2023-03-01T00:03:45;0.70;99.90
52731;DHT22;38624;53.242;6.974;2023-03-01T00:06:11;1.50;99.90
52731;DHT22;38624;53.242;6.974;2023-03-01T00:08:36;0.70;99.90
52731;DHT22;38624;53.242;6.974;2023-03-01T00:11:04;0.60;99.90
52731;DHT22;38624;53.242;6.974;2023-03-01T00:13:30;0.50;99.90
52731;DHT22;38624;53.242;6.974;2023-03-01T00:15:56;0.60;99.90
52731;DHT22;38624;53.242;6.974;2023-03-01T00:18:22;0.50;99.90
52731;DHT22;38624;53.242;6.974;2023-03-01T00:20:55;0.40;99.90
52731;DHT22;38624;53.242;6.974;2023-03-01T00:23:21;0.30;99.90
52731;DHT22;38624;53.242;6.974;2023-03-01T00:25:47;0.80;99.90
52731;DHT22;38624;53.242;6.974;2023-03-01T00:28:13;0.10;99.90
52731;DHT22;38624;53.242;6.974;2023-03-01T00:30:39;0.10;99.90
52731;DHT22;38624;53.242;6.974;2023-03-01T00:33:04;1.20;99.90
52731;DHT22;38624;53.242;6.974;2023-03-01T00:35:32;0.40;99.90
52731;DHT22;38624;53.242;6.974;2023-03-01T00:37:58;0.40;99.90
52731;DHT22;38624;53.242;6.974;2023-03-01T00:40:24;0.60;99.90
52731;DHT22;38624;53.242;6.974;2023-03-01T00:42:50;0.20;99.90
52731;DHT22;38624;53.242;6.974;2023-03-01T00:45:16;0.00;99.90
52731;DHT22;38624;53.242;6.974;2023-03-01T00:47:42;0.80;99.90
52731;DHT22;38624;53.242;6.974;2023-03-01T00:50:09;1.40;99.90
52731;DHT22;38624;53.242;6.974;2023-03-01T00:52:34;-0.10;99.90
52731;DHT22;38624;53.242;6.974;2023-03-01T00:55:00;0.40;99.90
52731;DHT22;38624;53.242;6.974;2023-03-01T00:57:26;0.70;99.90
52731;DHT22;38624;53.242;6.974;2023-03-01T00:59:52;0.50;99.90
52731;DHT22;38624;53.242;6.974;2023-03-01T01:02:18;-0.20;99.90
52731;DHT22;38624;53.242;6.974;2023-03-01T01:04:45;-0.20;99.90
52731;DHT22;38624;53.242;6.974;2023-03-01T01:07:11;-0.10;99.90
52731;DHT22;38624;53.242;6.974;2023-03-01T01:09:37;-0.30;99.90
52731;DHT22;38624;53.242;6.974;2023-03-01T01:12:03;0.80;99.90
52731;DHT22;38624;53.242;6.974;2023-03-01T01:14:29;-0.20;99.90
52731;DHT22;38624;53.242;6.974;2023-03-01T01:16:55;-0.30;99.90
52731;DHT22;38624;53.242;6.974;2023-03-01T01:19:21;-0.30;99.90
52731;DHT22;38624;53.242;6.974;2023-03-01T01:21:47;-0.30;99.90
52731;DHT22;38624;53.242;6.974;2023-03-01T01:24:14;-0.40;99.90
52731;DHT22;38624;53.242;6.974;2023-03-01T01:26:40;-0.40;99.90
52731;DHT22;38624;53.242;6.974;2023-03-01T01:29:07;-0.40;99.90
52731;DHT22;38624;53.242;6.974;2023-03-01T01:31:35;-0.40;99.90
52731;DHT22;38624;53.242;6.974;2023-03-01T01:34:02;-0.10;99.90
52731;DHT22;38624;53.242;6.974;2023-03-01T01:36:29;-0.40;99.90
52731;DHT22;38624;53.242;6.974;2023-03-01T01:38:55;0.80;99.90
52731;DHT22;38624;53.242;6.974;2023-03-01T01:41:22;-0.40;99.90
52731;DHT22;38624;53.242;6.974;2023-03-01T01:49:50;-0.50;99.90
52731;DHT22;38624;53.242;6.974;2023-03-01T01:52:24;-0.50;99.90
52731;DHT22;38624;53.242;6.974;2023-03-01T01:55:07;-0.50;99.90
52731;DHT22;38624;53.242;6.974;2023-03-01T01:57:40;-0.50;99.90
52731;DHT22;38624;53.242;6.974;2023-03-01T02:00:14;-0.50;99.90
52731;DHT22;38624;53.242;6.974;2023-03-01T02:02:42;-0.60;99.90
52731;DHT22;38624;53.242;6.974;2023-03-01T02:05:28;0.30;99.90
52731;DHT22;38624;53.242;6.974;2023-03-01T02:07:58;-0.60;99.90
52731;DHT22;38624;53.242;6.974;2023-03-01T02:10:25;-0.60;99.90
52731;DHT22;38624;53.242;6.974;2023-03-01T02:12:54;-0.30;99.90
52731;DHT22;38624;53.242;6.974;2023-03-01T02:15:22;-0.50;99.90
52731;DHT22;38624;53.242;6.974;2023-03-01T02:17:48;1.00;99.90
52731;DHT22;38624;53.242;6.974;2023-03-01T02:20:30;0.10;99.90
52731;DHT22;38624;53.242;6.974;2023-03-01T02:22:58;-0.60;99.90
52731;DHT22;38624;53.242;6.974;2023-03-01T02:25:49;-0.60;99.90
52731;DHT22;38624;53.242;6.974;2023-03-01T02:30:50;0.50;99.90
52731;DHT22;38624;53.242;6.974;2023-03-01T02:33:36;-0.60;99.90
52731;DHT22;38624;53.242;6.974;2023-03-01T02:36:21;0.40;99.90
52731;DHT22;38624;53.242;6.974;2023-03-01T02:38:51;-0.40;99.90
52731;DHT22;38624;53.242;6.974;2023-03-01T02:41:19;0.70;99.90
52731;DHT22;38624;53.242;6.974;2023-03-01T02:43:45;0.10;99.90
52731;DHT22;38624;53.242;6.974;2023-03-01T02:46:21;-0.80;99.90
52731;DHT22;38624;53.242;6.974;2023-03-01T02:48:50;-0.20;99.90
52731;DHT22;38624;53.242;6.974;2023-03-01T02:56:41;-1.00;99.90
52731;DHT22;38624;53.242;6.974;2023-03-01T02:59:07;0.00;99.90
52731;DHT22;38624;53.242;6.974;2023-03-01T03:01:33;0.40;99.90
52731;DHT22;38624;53.242;6.974;2023-03-01T03:04:04;-1.10;99.90
52731;DHT22;38624;53.242;6.974;2023-03-01T03:06:31;-1.10;99.90
52731;DHT22;38624;53.242;6.974;2023-03-01T03:08:56;-1.20;99.90
52731;DHT22;38624;53.242;6.974;2023-03-01T03:11:22;-1.20;99.90
52731;DHT22;38624;53.242;6.974;2023-03-01T03:13:48;-1.20;99.90
52731;DHT22;38624;53.242;6.974;2023-03-01T03:16:15;-0.10;99.90
52731;DHT22;38624;53.242;6.974;2023-03-01T03:18:41;-1.40;99.90
52731;DHT22;38624;53.242;6.974;2023-03-01T03:21:11;-1.40;99.90
52731;DHT22;38624;53.242;6.974;2023-03-01T03:23:37;-1.40;99.90
52731;DHT22;38624;53.242;6.974;2023-03-01T03:26:03;-1.50;99.90
52731;DHT22;38624;53.242;6.974;2023-03-01T03:28:33;-1.50;99.90
52731;DHT22;38624;53.242;6.974;2023-03-01T03:30:59;-1.50;99.90
52731;DHT22;38624;53.242;6.974;2023-03-01T03:33:32;-1.60;99.90
52731;DHT22;38624;53.242;6.974;2023-03-01T03:35:57;-1.70;99.90
52731;DHT22;38624;53.242;6.974;2023-03-01T03:38:23;-1.80;99.90
52731;DHT22;38624;53.242;6.974;2023-03-01T03:40:51;-1.80;99.90
52731;DHT22;38624;53.242;6.974;2023-03-01T03:43:22;-0.80;99.90
52731;DHT22;38624;53.242;6.974;2023-03-01T03:45:50;-1.90;99.90
52731;DHT22;38624;53.242;6.974;2023-03-01T03:48:16;-0.40;99.90
52731;DHT22;38624;53.242;6.974;2023-03-01T03:50:48;-0.30;99.90
52731;DHT22;38624;53.242;6.974;2023-03-01T03:53:14;-0.50;99.90
52731;DHT22;38624;53.242;6.974;2023-03-01T03:55:41;-1.90;99.90
52731;DHT22;38624;53.242;6.974;2023-03-01T03:58:09;-1.90;99.90
52731;DHT22;38624;53.242;6.974;2023-03-01T04:00:37;-1.20;99.90
52731;DHT22;38624;53.242;6.974;2023-03-01T04:03:04;-0.40;99.90
52731;DHT22;38624;53.242;6.974;2023-03-01T04:05:30;-0.80;99.90
52731;DHT22;38624;53.242;6.974;2023-03-01T04:07:57;-2.00;99.90
52731;DHT22;38624;53.242;6.974;2023-03-01T04:10:31;-2.10;99.90
52731;DHT22;38624;53.242;6.974;2023-03-01T04:12:57;-2.20;99.90
52731;DHT22;38624;53.242;6.974;2023-03-01T04:15:24;-2.20;99.90
52731;DHT22;38624;53.242;6.974;2023-03-01T04:17:51;-0.90;99.90
52731;DHT22;38624;53.242;6.974;2023-03-01T04:20:20;-1.40;99.90
52731;DHT22;38624;53.242;6.974;2023-03-01T04:25:25;-2.40;99.90
52731;DHT22;38624;53.242;6.974;2023-03-01T04:27:51;-1.20;99.90
52731;DHT22;38624;53.242;6.974;2023-03-01T04:30:17;-2.40;99.90
52731;DHT22;38624;53.242;6.974;2023-03-01T04:32:43;-2.40;99.90
52731;DHT22;38624;53.242;6.974;2023-03-01T04:35:09;-2.20;99.90
52731;DHT22;38624;53.242;6.974;2023-03-01T04:37:35;-2.40;99.90
52731;DHT22;38624;53.242;6.974;2023-03-01T04:40:02;-2.40;99.90
52731;DHT22;38624;53.242;6.974;2023-03-01T04:42:38;-2.50;99.90
52731;DHT22;38624;53.242;6.974;2023-03-01T04:45:04;-2.40;99.90
52731;DHT22;38624;53.242;6.974;2023-03-01T04:47:39;-2.40;99.90
52731;DHT22;38624;53.242;6.974;2023-03-01T04:50:05;-2.00;99.90
52731;DHT22;38624;53.242;6.974;2023-03-01T04:52:31;-2.40;99.90
52731;DHT22;38624;53.242;6.974;2023-03-01T04:54:57;-2.40;99.90
52731;DHT22;38624;53.242;6.974;2023-03-01T04:57:22;-2.40;99.90
52731;DHT22;38624;53.242;6.974;2023-03-01T04:59:48;-2.50;99.90
52731;DHT22;38624;53.242;6.974;2023-03-01T05:02:14;-2.50;99.90
52731;DHT22;38624;53.242;6.974;2023-03-01T05:04:39;-2.50;99.90
52731;DHT22;38624;53.242;6.974;2023-03-01T05:07:05;-2.30;99.90
52731;DHT22;38624;53.242;6.974;2023-03-01T05:09:31;-2.40;99.90
52731;DHT22;38624;53.242;6.974;2023-03-01T05:11:56;-2.40;99.90
52731;DHT22;38624;53.242;6.974;2023-03-01T05:14:22;-2.40;99.90
52731;DHT22;38624;53.242;6.974;2023-03-01T05:16:48;-2.40;99.90
52731;DHT22;38624;53.242;6.974;2023-03-01T05:19:14;-2.50;99.90
52731;DHT22;38624;53.242;6.974;2023-03-01T05:21:48;-2.50;99.90
52731;DHT22;38624;53.242;6.974;2023-03-01T05:24:38;-2.50;99.90
52731;DHT22;38624;53.242;6.974;2023-03-01T05:27:04;-1.50;99.90
52731;DHT22;38624;53.242;6.974;2023-03-01T05:29:31;-2.60;99.90
52731;DHT22;38624;53.242;6.974;2023-03-01T05:32:00;-2.70;99.90
52731;DHT22;38624;53.242;6.974;2023-03-01T05:34:33;-2.70;99.90
52731;DHT22;38624;53.242;6.974;2023-03-01T05:37:01;-2.70;99.90
52731;DHT22;38624;53.242;6.974;2023-03-01T05:39:28;-2.40;99.90
52731;DHT22;38624;53.242;6.974;2023-03-01T05:41:59;-2.70;99.90
52731;DHT22;38624;53.242;6.974;2023-03-01T05:44:25;-2.80;99.90
52731;DHT22;38624;53.242;6.974;2023-03-01T05:46:51;-2.90;99.90
52731;DHT22;38624;53.242;6.974;2023-03-01T05:49:17;-2.90;99.90
52731;DHT22;38624;53.242;6.974;2023-03-01T05:51:47;-2.90;99.90
52731;DHT22;38624;53.242;6.974;2023-03-01T05:54:14;-1.70;99.90
52731;DHT22;38624;53.242;6.974;2023-03-01T05:56:39;-3.00;99.90
52731;DHT22;38624;53.242;6.974;2023-03-01T05:59:06;-3.10;99.90
52731;DHT22;38624;53.242;6.974;2023-03-01T06:01:33;-3.00;99.90
52731;DHT22;38624;53.242;6.974;2023-03-01T06:03:59;-3.00;99.90
52731;DHT22;38624;53.242;6.974;2023-03-01T06:06:25;-3.10;99.90
52731;DHT22;38624;53.242;6.974;2023-03-01T06:08:52;-3.10;99.90
52731;DHT22;38624;53.242;6.974;2023-03-01T06:11:18;-3.00;99.90
52731;DHT22;38624;53.242;6.974;2023-03-01T06:13:44;-3.10;99.90
52731;DHT22;38624;53.242;6.974;2023-03-01T06:16:10;-3.10;99.90
52731;DHT22;38624;53.242;6.974;2023-03-01T06:18:37;-3.10;99.90
52731;DHT22;38624;53.242;6.974;2023-03-01T06:21:04;-3.10;99.90
52731;DHT22;38624;53.242;6.974;2023-03-01T06:23:30;-3.10;99.90
52731;DHT22;38624;53.242;6.974;2023-03-01T06:25:55;-3.10;99.90
52731;DHT22;38624;53.242;6.974;2023-03-01T06:28:21;-3.00;99.90
52731;DHT22;38624;53.242;6.974;2023-03-01T06:30:47;-3.00;99.90
52731;DHT22;38624;53.242;6.974;2023-03-01T06:33:13;-3.00;99.90
52731;DHT22;38624;53.242;6.974;2023-03-01T06:35:39;-3.00;99.90
52731;DHT22;38624;53.242;6.974;2023-03-01T06:38:05;-3.00;99.90
52731;DHT22;38624;53.242;6.974;2023-03-01T06:40:31;-3.10;99.90
52731;DHT22;38624;53.242;6.974;2023-03-01T06:42:58;-3.00;99.90
52731;DHT22;38624;53.242;6.974;2023-03-01T06:45:24;-3.10;99.90
52731;DHT22;38624;53.242;6.974;2023-03-01T06:47:50;-3.10;99.90
52731;DHT22;38624;53.242;6.974;2023-03-01T06:50:17;-3.10;99.90
52731;DHT22;38624;53.242;6.974;2023-03-01T06:52:43;-3.00;99.90
52731;DHT22;38624;53.242;6.974;2023-03-01T06:55:11;-3.10;99.90
52731;DHT22;38624;53.242;6.974;2023-03-01T06:57:37;-2.90;99.90
52731;DHT22;38624;53.242;6.974;2023-03-01T07:00:04;-3.00;99.90
52731;DHT22;38624;53.242;6.974;2023-03-01T07:02:30;-2.90;99.90
52731;DHT22;38624;53.242;6.974;2023-03-01T07:04:56;-2.80;99.90
52731;DHT22;38624;53.242;6.974;2023-03-01T07:07:21;-2.80;99.90
52731;DHT22;38624;53.242;6.974;2023-03-01T07:09:49;-2.70;99.90
52731;DHT22;38624;53.242;6.974;2023-03-01T07:12:15;-1.60;99.90
52731;DHT22;38624;53.242;6.974;2023-03-01T07:14:43;-2.60;99.90
52731;DHT22;38624;53.242;6.974;2023-03-01T07:17:09;-2.50;99.90
52731;DHT22;38624;53.242;6.974;2023-03-01T07:19:35;-2.10;99.90
52731;DHT22;38624;53.242;6.974;2023-03-01T07:22:00;-2.40;99.90
52731;DHT22;38624;53.242;6.974;2023-03-01T07:24:26;-2.30;99.90
52731;DHT22;38624;53.242;6.974;2023-03-01T07:26:52;-2.30;99.90
52731;DHT22;38624;53.242;6.974;2023-03-01T07:29:19;-2.30;99.90
52731;DHT22;38624;53.242;6.974;2023-03-01T07:31:45;-0.80;99.90
52731;DHT22;38624;53.242;6.974;2023-03-01T07:34:11;-0.80;99.90
52731;DHT22;38624;53.242;6.974;2023-03-01T07:36:37;-2.10;99.90
52731;DHT22;38624;53.242;6.974;2023-03-01T07:39:03;-0.90;99.90
52731;DHT22;38624;53.242;6.974;2023-03-01T07:41:29;-1.90;99.90
52731;DHT22;38624;53.242;6.974;2023-03-01T07:43:55;-1.80;99.90
52731;DHT22;38624;53.242;6.974;2023-03-01T07:46:21;-1.60;99.90
52731;DHT22;38624;53.242;6.974;2023-03-01T07:48:47;-1.60;99.90
52731;DHT22;38624;53.242;6.974;2023-03-01T07:51:13;-1.50;99.90
52731;DHT22;38624;53.242;6.974;2023-03-01T07:53:39;-1.40;99.90
52731;DHT22;38624;53.242;6.974;2023-03-01T07:56:07;-0.10;99.90
52731;DHT22;38624;53.242;6.974;2023-03-01T07:58:37;-1.30;99.90
52731;DHT22;38624;53.242;6.974;2023-03-01T08:01:05;-1.10;99.90
52731;DHT22;38624;53.242;6.974;2023-03-01T08:03:31;0.10;99.90
52731;DHT22;38624;53.242;6.974;2023-03-01T08:05:59;-1.20;99.90
52731;DHT22;38624;53.242;6.974;2023-03-01T08:08:25;-1.10;99.90
52731;DHT22;38624;53.242;6.974;2023-03-01T08:10:51;0.10;99.90
52731;DHT22;38624;53.242;6.974;2023-03-01T08:13:17;-0.90;99.90
52731;DHT22;38624;53.242;6.974;2023-03-01T08:15:48;-0.80;99.90
52731;DHT22;38624;53.242;6.974;2023-03-01T08:18:15;0.70;99.90
52731;DHT22;38624;53.242;6.974;2023-03-01T08:20:41;0.60;99.90
52731;DHT22;38624;53.242;6.974;2023-03-01T08:23:07;-0.60;99.90
52731;DHT22;38624;53.242;6.974;2023-03-01T08:25:32;-0.60;99.90
52731;DHT22;38624;53.242;6.974;2023-03-01T08:27:58;-0.40;99.90
52731;DHT22;38624;53.242;6.974;2023-03-01T08:30:24;-0.40;99.90
52731;DHT22;38624;53.242;6.974;2023-03-01T08:32:50;0.90;99.90
52731;DHT22;38624;53.242;6.974;2023-03-01T08:35:16;-0.20;99.90
52731;DHT22;38624;53.242;6.974;2023-03-01T08:37:42;-0.10;99.90
52731;DHT22;38624;53.242;6.974;2023-03-01T08:40:09;-0.10;99.90
52731;DHT22;38624;53.242;6.974;2023-03-01T08:42:35;-0.10;99.90
52731;DHT22;38624;53.242;6.974;2023-03-01T08:45:02;-0.10;99.90
52731;DHT22;38624;53.242;6.974;2023-03-01T08:47:27;0.00;99.90
52731;DHT22;38624;53.242;6.974;2023-03-01T08:49:53;0.00;99.90
52731;DHT22;38624;53.242;6.974;2023-03-01T08:52:20;0.80;99.90
52731;DHT22;38624;53.242;6.974;2023-03-01T08:54:49;1.60;99.90
52731;DHT22;38624;53.242;6.974;2023-03-01T08:57:15;0.20;99.90
52731;DHT22;38624;53.242;6.974;2023-03-01T08:59:41;0.10;99.90
52731;DHT22;38624;53.242;6.974;2023-03-01T09:02:12;0.20;99.90
52731;DHT22;38624;53.242;6.974;2023-03-01T09:04:39;1.40;99.90
52731;DHT22;38624;53.242;6.974;2023-03-01T09:07:05;1.90;99.90
52731;DHT22;38624;53.242;6.974;2023-03-01T09:09:30;1.30;99.90
52731;DHT22;38624;53.242;6.974;2023-03-01T09:11:56;0.50;99.90
52731;DHT22;38624;53.242;6.974;2023-03-01T09:14:22;0.60;99.90
52731;DHT22;38624;53.242;6.974;2023-03-01T09:16:48;0.70;99.90
52731;DHT22;38624;53.242;6.974;2023-03-01T09:19:14;0.70;99.90
52731;DHT22;38624;53.242;6.974;2023-03-01T09:21:40;2.10;99.90
52731;DHT22;38624;53.242;6.974;2023-03-01T09:24:15;0.90;99.90
52731;DHT22;38624;53.242;6.974;2023-03-01T09:26:44;0.90;99.90
52731;DHT22;38624;53.242;6.974;2023-03-01T09:29:12;1.00;99.90
52731;DHT22;38624;53.242;6.974;2023-03-01T09:31:38;1.10;99.90
52731;DHT22;38624;53.242;6.974;2023-03-01T09:34:04;1.10;99.90
52731;DHT22;38624;53.242;6.974;2023-03-01T09:36:30;1.20;99.90
52731;DHT22;38624;53.242;6.974;2023-03-01T09:38:57;1.60;99.90
52731;DHT22;38624;53.242;6.974;2023-03-01T09:46:51;2.10;99.90
52731;DHT22;38624;53.242;6.974;2023-03-01T09:49:28;2.40;99.90
52731;DHT22;38624;53.242;6.974;2023-03-01T09:54:40;1.90;99.90
52731;DHT22;38624;53.242;6.974;2023-03-01T09:57:19;2.00;99.90
52731;DHT22;38624;53.242;6.974;2023-03-01T10:02:27;2.30;99.90
52731;DHT22;38624;53.242;6.974;2023-03-01T10:05:26;2.70;99.90
52731;DHT22;38624;53.242;6.974;2023-03-01T10:10:38;2.70;99.90
52731;DHT22;38624;53.242;6.974;2023-03-01T10:13:25;2.90;99.90
52731;DHT22;38624;53.242;6.974;2023-03-01T10:15:56;3.10;99.90
52731;DHT22;38624;53.242;6.974;2023-03-01T10:18:29;3.20;99.90
52731;DHT22;38624;53.242;6.974;2023-03-01T10:21:25;3.30;99.90
52731;DHT22;38624;53.242;6.974;2023-03-01T10:23:51;3.40;99.90
52731;DHT22;38624;53.242;6.974;2023-03-01T10:29:10;3.60;99.90
52731;DHT22;38624;53.242;6.974;2023-03-01T10:31:40;3.70;99.90
52731;DHT22;38624;53.242;6.974;2023-03-01T10:34:14;4.70;99.90
52731;DHT22;38624;53.242;6.974;2023-03-01T10:36:41;3.90;99.90
52731;DHT22;38624;53.242;6.974;2023-03-01T10:39:21;4.20;99.90
52731;DHT22;38624;53.242;6.974;2023-03-01T10:41:59;5.10;99.90
52731;DHT22;38624;53.242;6.974;2023-03-01T10:44:40;5.50;99.90
52731;DHT22;38624;53.242;6.974;2023-03-01T10:47:20;5.60;99.90
52731;DHT22;38624;53.242;6.974;2023-03-01T10:50:00;6.30;99.90
52731;DHT22;38624;53.242;6.974;2023-03-01T10:52:29;6.60;99.90
52731;DHT22;38624;53.242;6.974;2023-03-01T10:55:42;7.00;99.90
52731;DHT22;38624;53.242;6.974;2023-03-01T10:57:49;8.00;99.90
52731;DHT22;38624;53.242;6.974;2023-03-01T11:00:17;8.30;99.90
52731;DHT22;38624;53.242;6.974;2023-03-01T11:03:12;8.50;99.90
52731;DHT22;38624;53.242;6.974;2023-03-01T11:08:33;8.90;99.90
52731;DHT22;38624;53.242;6.974;2023-03-01T11:16:32;9.30;99.90
52731;DHT22;38624;53.242;6.974;2023-03-01T11:21:38;9.80;99.90
52731;DHT22;38624;53.242;6.974;2023-03-01T11:24:11;10.50;99.90
52731;DHT22;38624;53.242;6.974;2023-03-01T11:26:41;10.60;99.90
52731;DHT22;38624;53.242;6.974;2023-03-01T11:32:01;11.20;99.90
52731;DHT22;38624;53.242;6.974;2023-03-01T11:34:42;11.50;99.90
52731;DHT22;38624;53.242;6.974;2023-03-01T11:37:33;12.10;99.90
52731;DHT22;38624;53.242;6.974;2023-03-01T11:45:11;13.70;99.90
52731;DHT22;38624;53.242;6.974;2023-03-01T12:09:24;15.00;94.10
52731;DHT22;38624;53.242;6.974;2023-03-01T12:25:25;19.20;81.70
52731;DHT22;38624;53.242;6.974;2023-03-01T12:38:19;24.20;59.50
52731;DHT22;38624;53.242;6.974;2023-03-01T12:43:50;25.20;58.80
52731;DHT22;38624;53.242;6.974;2023-03-01T12:47:05;25.70;50.60
52731;DHT22;38624;53.242;6.974;2023-03-01T12:49:38;26.00;49.80
52731;DHT22;38624;53.242;6.974;2023-03-01T12:54:55;26.60;52.10
52731;DHT22;38624;53.242;6.974;2023-03-01T13:00:16;26.20;51.90
52731;DHT22;38624;53.242;6.974;2023-03-01T13:03:00;26.90;48.20
52731;DHT22;38624;53.242;6.974;2023-03-01T13:09:07;26.20;51.20
52731;DHT22;38624;53.242;6.974;2023-03-01T13:11:18;26.70;47.70
52731;DHT22;38624;53.242;6.974;2023-03-01T13:13:45;26.40;49.40
52731;DHT22;38624;53.242;6.974;2023-03-01T13:19:15;27.00;46.90
52731;DHT22;38624;53.242;6.974;2023-03-01T13:21:43;27.30;47.00
52731;DHT22;38624;53.242;6.974;2023-03-01T13:24:40;27.10;49.10
52731;DHT22;38624;53.242;6.974;2023-03-01T13:32:20;25.90;47.50
52731;DHT22;38624;53.242;6.974;2023-03-01T13:34:48;26.20;48.30
52731;DHT22;38624;53.242;6.974;2023-03-01T13:37:29;26.30;48.60
52731;DHT22;38624;53.242;6.974;2023-03-01T13:39:58;26.10;45.30
52731;DHT22;38624;53.242;6.974;2023-03-01T13:42:32;26.50;46.70
52731;DHT22;38624;53.242;6.974;2023-03-01T13:44:59;26.10;47.50
52731;DHT22;38624;53.242;6.974;2023-03-01T13:47:27;25.60;48.30
52731;DHT22;38624;53.242;6.974;2023-03-01T13:49:58;25.60;48.50
52731;DHT22;38624;53.242;6.974;2023-03-01T13:55:51;24.30;48.80
52731;DHT22;38624;53.242;6.974;2023-03-01T13:57:58;23.50;49.50
52731;DHT22;38624;53.242;6.974;2023-03-01T14:00:33;22.50;50.40
52731;DHT22;38624;53.242;6.974;2023-03-01T14:03:19;22.10;51.20
52731;DHT22;38624;53.242;6.974;2023-03-01T14:08:27;21.80;51.90
52731;DHT22;38624;53.242;6.974;2023-03-01T14:10:57;21.60;52.80
52731;DHT22;38624;53.242;6.974;2023-03-01T14:13:29;21.20;53.50
52731;DHT22;38624;53.242;6.974;2023-03-01T14:19:16;20.90;51.90
52731;DHT22;38624;53.242;6.974;2023-03-01T14:21:43;20.40;52.10
52731;DHT22;38624;53.242;6.974;2023-03-01T14:24:20;19.70;54.30
52731;DHT22;38624;53.242;6.974;2023-03-01T14:26:47;19.00;55.00
52731;DHT22;38624;53.242;6.974;2023-03-01T14:29:36;18.80;56.60
52731;DHT22;38624;53.242;6.974;2023-03-01T14:32:24;18.50;56.10
52731;DHT22;38624;53.242;6.974;2023-03-01T14:34:50;17.80;57.40
52731;DHT22;38624;53.242;6.974;2023-03-01T14:37:33;17.50;58.20
52731;DHT22;38624;53.242;6.974;2023-03-01T14:40:02;17.60;58.50
52731;DHT22;38624;53.242;6.974;2023-03-01T14:42:33;17.60;60.00
52731;DHT22;38624;53.242;6.974;2023-03-01T14:45:00;17.50;59.10
52731;DHT22;38624;53.242;6.974;2023-03-01T14:47:27;17.10;59.70
52731;DHT22;38624;53.242;6.974;2023-03-01T14:50:04;17.20;57.80
52731;DHT22;38624;53.242;6.974;2023-03-01T14:52:36;17.30;59.40
52731;DHT22;38624;53.242;6.974;2023-03-01T14:55:06;17.30;59.70
52731;DHT22;38624;53.242;6.974;2023-03-01T14:57:32;17.00;59.70
52731;DHT22;38624;53.242;6.974;2023-03-01T15:00:02;16.50;60.50
52731;DHT22;38624;53.242;6.974;2023-03-01T15:02:31;16.20;60.50
52731;DHT22;38624;53.242;6.974;2023-03-01T15:04:58;15.60;61.70
52731;DHT22;38624;53.242;6.974;2023-03-01T15:07:29;15.00;60.70
52731;DHT22;38624;53.242;6.974;2023-03-01T15:09:56;14.80;65.00
52731;DHT22;38624;53.242;6.974;2023-03-01T15:14:54;14.30;64.20
52731;DHT22;38624;53.242;6.974;2023-03-01T15:17:32;14.20;64.70
52731;DHT22;38624;53.242;6.974;2023-03-01T15:20:01;14.50;63.70
52731;DHT22;38624;53.242;6.974;2023-03-01T15:22:27;14.70;64.30
52731;DHT22;38624;53.242;6.974;2023-03-01T15:24:54;14.90;63.80
52731;DHT22;38624;53.242;6.974;2023-03-01T15:27:21;15.60;63.30
52731;DHT22;38624;53.242;6.974;2023-03-01T15:29:53;15.60;60.90
52731;DHT22;38624;53.242;6.974;2023-03-01T15:34:53;15.60;62.30
52731;DHT22;38624;53.242;6.974;2023-03-01T15:37:39;15.20;62.20
52731;DHT22;38624;53.242;6.974;2023-03-01T15:40:24;15.00;61.80
52731;DHT22;38624;53.242;6.974;2023-03-01T15:43:05;15.30;61.50
52731;DHT22;38624;53.242;6.974;2023-03-01T15:45:32;15.20;62.60
52731;DHT22;38624;53.242;6.974;2023-03-01T15:48:15;15.10;63.80
52731;DHT22;38624;53.242;6.974;2023-03-01T15:50:43;15.00;64.20
52731;DHT22;38624;53.242;6.974;2023-03-01T15:53:13;14.90;64.00
52731;DHT22;38624;53.242;6.974;2023-03-01T15:55:40;15.00;63.80
52731;DHT22;38624;53.242;6.974;2023-03-01T15:58:10;15.20;63.40
52731;DHT22;38624;53.242;6.974;2023-03-01T16:00:37;15.40;63.10
52731;DHT22;38624;53.242;6.974;2023-03-01T16:03:04;15.60;62.50
52731;DHT22;38624;53.242;6.974;2023-03-01T16:05:32;15.50;62.10
52731;DHT22;38624;53.242;6.974;2023-03-01T16:08:00;15.70;62.60
52731;DHT22;38624;53.242;6.974;2023-03-01T16:10:26;15.50;62.60
52731;DHT22;38624;53.242;6.974;2023-03-01T16:12:52;15.30;63.60
52731;DHT22;38624;53.242;6.974;2023-03-01T16:17:54;14.60;65.00
52731;DHT22;38624;53.242;6.974;2023-03-01T16:20:21;14.40;65.90
52731;DHT22;38624;53.242;6.974;2023-03-01T16:22:47;14.10;66.20
52731;DHT22;38624;53.242;6.974;2023-03-01T16:25:15;13.70;67.00
52731;DHT22;38624;53.242;6.974;2023-03-01T16:27:45;13.50;68.10
52731;DHT22;38624;53.242;6.974;2023-03-01T16:30:13;13.40;68.90
52731;DHT22;38624;53.242;6.974;2023-03-01T16:32:44;13.30;69.70
52731;DHT22;38624;53.242;6.974;2023-03-01T16:35:12;13.10;70.20
52731;DHT22;38624;53.242;6.974;2023-03-01T16:37:39;12.90;70.90
52731;DHT22;38624;53.242;6.974;2023-03-01T16:40:05;12.50;72.20
52731;DHT22;38624;53.242;6.974;2023-03-01T16:42:36;12.00;72.90
52731;DHT22;38624;53.242;6.974;2023-03-01T16:45:03;11.70;74.40
52731;DHT22;38624;53.242;6.974;2023-03-01T16:47:29;11.40;75.50
52731;DHT22;38624;53.242;6.974;2023-03-01T16:49:55;11.10;76.70
52731;DHT22;38624;53.242;6.974;2023-03-01T16:52:22;10.90;78.00
52731;DHT22;38624;53.242;6.974;2023-03-01T16:54:48;10.50;79.50
52731;DHT22;38624;53.242;6.974;2023-03-01T16:57:14;10.10;82.40
52731;DHT22;38624;53.242;6.974;2023-03-01T16:59:40;9.80;87.00
52731;DHT22;38624;53.242;6.974;2023-03-01T17:02:11;9.60;93.00
52731;DHT22;38624;53.242;6.974;2023-03-01T17:04:39;9.00;97.80
52731;DHT22;38624;53.242;6.974;2023-03-01T17:07:04;8.80;99.90
52731;DHT22;38624;53.242;6.974;2023-03-01T17:09:33;8.50;99.90
52731;DHT22;38624;53.242;6.974;2023-03-01T17:11:59;8.30;99.90
52731;DHT22;38624;53.242;6.974;2023-03-01T17:14:25;8.00;99.90
52731;DHT22;38624;53.242;6.974;2023-03-01T17:16:50;7.80;99.90
52731;DHT22;38624;53.242;6.974;2023-03-01T17:19:18;7.50;99.90
52731;DHT22;38624;53.242;6.974;2023-03-01T17:21:45;7.40;99.90
52731;DHT22;38624;53.242;6.974;2023-03-01T17:24:11;7.30;99.90
52731;DHT22;38624;53.242;6.974;2023-03-01T17:26:37;7.00;99.90
52731;DHT22;38624;53.242;6.974;2023-03-01T17:29:03;6.90;99.90
52731;DHT22;38624;53.242;6.974;2023-03-01T17:31:31;6.70;99.90
52731;DHT22;38624;53.242;6.974;2023-03-01T17:33:57;6.60;99.90
52731;DHT22;38624;53.242;6.974;2023-03-01T17:36:22;6.40;99.90
52731;DHT22;38624;53.242;6.974;2023-03-01T17:38:49;6.40;99.90
52731;DHT22;38624;53.242;6.974;2023-03-01T17:41:15;6.30;99.90
52731;DHT22;38624;53.242;6.974;2023-03-01T17:43:43;6.10;99.90
52731;DHT22;38624;53.242;6.974;2023-03-01T17:46:10;5.90;99.90
52731;DHT22;38624;53.242;6.974;2023-03-01T17:48:36;5.90;99.90
52731;DHT22;38624;53.242;6.974;2023-03-01T17:51:10;5.70;99.90
52731;DHT22;38624;53.242;6.974;2023-03-01T17:53:36;5.60;99.90
52731;DHT22;38624;53.242;6.974;2023-03-01T17:56:04;5.50;99.90
52731;DHT22;38624;53.242;6.974;2023-03-01T17:58:30;5.40;99.90
52731;DHT22;38624;53.242;6.974;2023-03-01T18:01:08;5.30;99.90